Time;durP1;ratioP1;P1;durP2;ratioP2;P2;SDS_P1;SDS_P2;PMS_P1;PMS_P2;Temp;Humidity;BMP_temperature;BMP_pressure;BME280_temperature;BME280_humidity;BME280_pressure;Samples;Min_cycle;Max_cycle;Signal;HPM_P1;HPM_P2
2023/06/25 00:00:56;;;;;;;10.60;10.30;;;17.40;99.90;;;;;;5025669;28;20259;-79
2023/06/25 00:03:25;;;;;;;10.35;10.05;;;17.40;99.90;;;;;;5025450;28;20412;-78
2023/06/25 00:05:52;;;;;;;10.43;10.13;;;17.30;99.90;;;;;;5026295;28;20291;-79
2023/06/25 00:08:21;;;;;;;10.40;10.10;;;17.20;99.90;;;;;;5029487;28;20256;-79
2023/06/25 00:10:50;;;;;;;10.40;10.10;;;17.20;99.90;;;;;;5028533;28;20236;-80
2023/06/25 00:13:17;;;;;;;10.38;10.07;;;17.20;99.90;;;;;;5025495;28;20238;-79
2023/06/25 00:15:48;;;;;;;10.40;10.10;;;17.10;99.90;;;;;;5024238;28;20234;-79
2023/06/25 00:18:16;;;;;;;10.40;10.10;;;17.10;99.90;;;;;;5023587;28;20244;-79
2023/06/25 00:20:46;;;;;;;10.23;9.93;;;17.00;99.90;;;;;;5022712;28;20308;-79
2023/06/25 00:23:13;;;;;;;10.50;10.20;;;17.00;99.90;;;;;;5023318;28;20274;-79
2023/06/25 00:25:42;;;;;;;10.38;10.07;;;16.90;99.90;;;;;;5022494;28;20238;-79
2023/06/25 00:28:10;;;;;;;10.30;10.00;;;16.90;99.90;;;;;;5022010;28;20243;-79
2023/06/25 00:30:37;;;;;;;10.40;10.10;;;16.80;99.90;;;;;;5022818;28;20246;-77
2023/06/25 00:33:05;;;;;;;10.10;9.80;;;16.80;99.90;;;;;;5021842;28;20315;-79
2023/06/25 00:36:08;;;;;;;10.43;10.13;;;16.70;99.90;;;;;;5022182;28;20295;-78
2023/06/25 00:38:38;;;;;;;10.45;10.15;;;16.60;99.90;;;;;;5022391;28;20228;-78
2023/06/25 00:41:16;;;;;;;10.38;10.07;;;16.60;99.90;;;;;;5022344;28;20232;-80
2023/06/25 00:43:44;;;;;;;10.60;10.30;;;16.60;99.90;;;;;;5021585;28;20231;-78
2023/06/25 00:46:16;;;;;;;10.70;10.40;;;16.60;99.90;;;;;;5021933;28;20263;-78
2023/06/25 00:48:45;;;;;;;10.43;10.13;;;16.50;99.90;;;;;;5022748;28;20239;-78
2023/06/25 00:51:14;;;;;;;10.88;10.57;;;16.40;99.90;;;;;;5022386;28;20236;-77
2023/06/25 00:53:42;;;;;;;10.77;10.48;;;16.30;99.90;;;;;;5023582;28;20247;-78
2023/06/25 00:56:12;;;;;;;10.80;10.50;;;16.30;99.90;;;;;;5020850;28;20236;-78
2023/06/25 00:58:40;;;;;;;10.40;10.10;;;16.20;99.90;;;;;;5022685;28;20290;-80
2023/06/25 01:01:21;;;;;;;10.68;10.38;;;16.10;99.90;;;;;;5023923;28;20327;-78
2023/06/25 01:03:55;;;;;;;10.70;10.40;;;16.10;99.90;;;;;;5022232;28;20242;-79
2023/06/25 01:06:30;;;;;;;10.60;10.30;;;16.00;99.90;;;;;;5021850;28;20259;-79
2023/06/25 01:08:59;;;;;;;10.48;10.18;;;16.00;99.90;;;;;;5021610;28;20724;-78
2023/06/25 01:11:29;;;;;;;10.60;10.30;;;16.00;99.90;;;;;;5021680;28;20259;-78
2023/06/25 01:13:57;;;;;;;10.70;10.40;;;15.90;99.90;;;;;;5021908;28;20240;-79
2023/06/25 01:16:25;;;;;;;10.57;10.27;;;15.90;99.90;;;;;;5021531;28;20267;-79
2023/06/25 01:18:52;;;;;;;10.63;10.32;;;15.90;99.90;;;;;;5021588;28;20309;-79
2023/06/25 01:21:26;;;;;;;10.40;10.10;;;15.90;99.90;;;;;;5021536;28;20286;-78
2023/06/25 01:23:56;;;;;;;10.50;10.20;;;15.80;99.90;;;;;;5021670;28;20231;-79
2023/06/25 01:26:23;;;;;;;10.50;10.20;;;15.80;99.90;;;;;;5021770;28;20275;-79
2023/06/25 01:28:55;;;;;;;10.70;10.40;;;15.70;99.90;;;;;;5021257;28;20232;-79
2023/06/25 01:31:25;;;;;;;10.60;10.30;;;15.70;99.90;;;;;;5022715;28;20428;-79
2023/06/25 01:33:53;;;;;;;10.52;10.23;;;15.70;99.90;;;;;;5021535;28;20280;-78
2023/06/25 01:36:20;;;;;;;10.48;10.18;;;15.60;99.90;;;;;;5021889;28;20288;-79
2023/06/25 01:38:48;;;;;;;10.50;10.20;;;15.60;99.90;;;;;;5021129;28;20246;-78
2023/06/25 01:41:17;;;;;;;10.50;10.20;;;15.50;99.90;;;;;;5021040;28;20250;-78
2023/06/25 01:43:44;;;;;;;10.27;9.98;;;15.50;99.90;;;;;;5020870;28;20263;-78
2023/06/25 01:46:12;;;;;;;10.10;9.80;;;15.50;99.90;;;;;;5022672;28;20232;-78
2023/06/25 01:48:40;;;;;;;10.07;9.77;;;15.40;99.90;;;;;;5023507;28;20228;-78
2023/06/25 01:51:07;;;;;;;10.40;10.10;;;15.40;99.90;;;;;;5021409;28;20335;-79
2023/06/25 01:53:35;;;;;;;10.40;10.10;;;15.40;99.90;;;;;;5021243;28;20287;-78
2023/06/25 01:56:02;;;;;;;10.20;9.90;;;15.30;99.90;;;;;;5021382;28;20302;-78
2023/06/25 01:58:31;;;;;;;10.20;9.90;;;15.30;99.90;;;;;;5023579;28;20256;-79
2023/06/25 02:00:59;;;;;;;9.98;9.68;;;15.30;99.90;;;;;;5020642;28;20283;-79
2023/06/25 02:03:26;;;;;;;10.25;9.95;;;15.20;99.90;;;;;;5021516;28;20239;-79
2023/06/25 02:05:54;;;;;;;9.93;9.63;;;15.20;99.90;;;;;;5022118;28;20231;-80
2023/06/25 02:08:21;;;;;;;10.20;9.90;;;15.10;99.90;;;;;;5022046;28;20220;-78
2023/06/25 02:10:49;;;;;;;10.20;9.90;;;15.00;99.90;;;;;;5028248;28;20247;-79
2023/06/25 02:13:16;;;;;;;9.90;9.60;;;15.00;99.90;;;;;;5024531;28;20228;-79
2023/06/25 02:15:46;;;;;;;9.90;9.60;;;14.90;99.90;;;;;;5023824;28;20342;-79
2023/06/25 02:18:13;;;;;;;9.73;9.43;;;14.90;99.90;;;;;;5022062;28;20239;-79
2023/06/25 02:20:41;;;;;;;10.07;9.77;;;14.90;99.90;;;;;;5021342;28;20252;-79
2023/06/25 02:23:09;;;;;;;9.90;9.60;;;14.90;99.90;;;;;;5023055;28;20327;-79
2023/06/25 02:25:36;;;;;;;10.02;9.73;;;14.90;99.90;;;;;;5023225;28;20316;-79
2023/06/25 02:28:04;;;;;;;10.10;9.80;;;14.80;99.90;;;;;;5021433;28;20228;-79
2023/06/25 02:30:31;;;;;;;9.93;9.63;;;14.80;99.90;;;;;;5021685;28;20238;-79
2023/06/25 02:33:00;;;;;;;9.85;9.55;;;14.80;99.90;;;;;;5021817;28;20340;-80
2023/06/25 02:35:28;;;;;;;9.80;9.50;;;14.80;99.90;;;;;;5022887;28;20334;-79
2023/06/25 02:37:56;;;;;;;9.80;9.50;;;14.70;99.90;;;;;;5029753;28;20287;-79
2023/06/25 02:40:24;;;;;;;9.95;9.65;;;14.70;99.90;;;;;;5029208;28;20294;-80
2023/06/25 02:42:51;;;;;;;9.80;9.50;;;14.70;99.90;;;;;;5024907;28;20236;-79
2023/06/25 02:45:19;;;;;;;10.10;9.80;;;14.60;99.90;;;;;;5023358;28;20296;-79
2023/06/25 02:47:47;;;;;;;10.38;10.07;;;14.60;99.90;;;;;;5023066;28;20320;-79
2023/06/25 02:50:16;;;;;;;10.38;10.07;;;14.60;99.90;;;;;;5022159;28;20240;-81
2023/06/25 02:52:44;;;;;;;10.48;10.18;;;14.50;99.90;;;;;;5021641;28;20232;-78
2023/06/25 02:55:12;;;;;;;10.45;10.15;;;14.50;99.90;;;;;;5023594;28;20247;-79
2023/06/25 02:57:40;;;;;;;10.52;10.23;;;14.50;99.90;;;;;;5026180;28;20218;-79
2023/06/25 03:00:09;;;;;;;10.70;10.40;;;14.40;99.90;;;;;;5024960;28;20244;-79
2023/06/25 03:02:36;;;;;;;10.50;10.20;;;14.40;99.90;;;;;;5022777;28;20268;-78
2023/06/25 03:05:05;;;;;;;10.27;9.97;;;14.40;99.90;;;;;;5021565;28;20247;-79
2023/06/25 03:07:34;;;;;;;10.23;9.93;;;14.40;99.90;;;;;;5021203;28;20271;-79
2023/06/25 03:10:01;;;;;;;10.50;10.20;;;14.30;99.90;;;;;;5020055;28;20327;-78
2023/06/25 03:12:29;;;;;;;10.43;10.13;;;14.30;99.90;;;;;;5021287;28;20239;-78
2023/06/25 03:14:56;;;;;;;10.40;10.10;;;14.20;99.90;;;;;;5021187;28;20263;-79
2023/06/25 03:17:24;;;;;;;10.40;10.10;;;14.30;99.90;;;;;;5020401;28;20266;-78
2023/06/25 03:19:52;;;;;;;10.30;10.00;;;14.20;99.90;;;;;;5019178;28;20236;-78
2023/06/25 03:22:21;;;;;;;10.40;10.10;;;14.20;99.90;;;;;;5058025;22;20289;-87
2023/06/25 03:24:59;;;;;;;10.27;9.97;;;14.20;99.90;;;;;;5041491;28;20254;-84
2023/06/25 03:27:28;;;;;;;10.10;9.80;;;14.10;99.90;;;;;;5042169;28;20314;-86
2023/06/25 03:30:00;;;;;;;10.20;9.90;;;14.20;99.90;;;;;;5042250;28;20236;-87
2023/06/25 03:32:28;;;;;;;10.03;9.73;;;14.10;99.90;;;;;;5042300;28;20240;-87
2023/06/25 03:34:56;;;;;;;9.80;9.50;;;14.10;99.90;;;;;;5041023;28;20285;-87
2023/06/25 03:37:25;;;;;;;9.90;9.60;;;14.00;99.90;;;;;;5041299;28;20275;-87
2023/06/25 03:40:04;;;;;;;9.80;9.50;;;14.00;99.90;;;;;;5042534;28;20267;-87
2023/06/25 03:42:34;;;;;;;10.00;9.70;;;14.00;99.90;;;;;;5042471;28;20235;-86
2023/06/25 03:45:03;;;;;;;9.77;9.47;;;14.00;99.90;;;;;;5042663;28;20242;-86
2023/06/25 03:47:32;;;;;;;9.80;9.50;;;14.00;99.90;;;;;;5043594;28;20227;-87
2023/06/25 03:50:02;;;;;;;10.20;9.90;;;14.10;99.90;;;;;;5042673;28;20258;-86
2023/06/25 03:52:31;;;;;;;10.37;10.07;;;14.10;99.90;;;;;;5042666;28;20318;-87
2023/06/25 03:55:10;;;;;;;10.00;9.70;;;14.00;99.90;;;;;;5041856;28;20231;-86
2023/06/25 03:57:40;;;;;;;10.13;9.83;;;14.00;99.90;;;;;;5041929;28;20218;-86
2023/06/25 04:00:09;;;;;;;10.30;10.00;;;14.00;99.90;;;;;;5042597;28;20258;-87
2023/06/25 04:02:38;;;;;;;10.30;10.00;;;14.00;99.90;;;;;;5041717;28;20238;-87
2023/06/25 04:05:07;;;;;;;10.20;9.90;;;14.00;99.90;;;;;;5041433;28;20230;-86
2023/06/25 04:07:36;;;;;;;10.07;9.77;;;14.00;99.90;;;;;;5046740;28;20228;-86
2023/06/25 04:10:16;;;;;;;10.07;9.77;;;14.00;99.90;;;;;;5045515;28;20314;-85
2023/06/25 04:12:54;;;;;;;10.27;9.97;;;14.10;99.90;;;;;;5039532;28;20235;-84
2023/06/25 04:15:32;;;;;;;9.73;9.43;;;14.10;99.90;;;;;;5012065;28;20256;-85
2023/06/25 04:18:00;;;;;;;10.20;9.90;;;14.20;99.90;;;;;;5022504;28;20228;-90
2023/06/25 04:20:33;;;;;;;10.30;10.00;;;14.30;99.90;;;;;;5021580;28;20323;-87
2023/06/25 04:23:01;;;;;;;10.33;10.03;;;14.30;99.90;;;;;;5022059;28;20224;-87
2023/06/25 04:25:35;;;;;;;10.43;10.13;;;14.40;99.90;;;;;;5036443;28;20287;-85
2023/06/25 04:31:05;;;;;;;10.60;10.30;;;14.50;99.90;;;;;;5042107;28;20231;-84
2023/06/25 04:33:53;;;;;;;10.27;9.98;;;14.60;99.90;;;;;;5045438;28;20235;-84
2023/06/25 04:36:21;;;;;;;10.30;10.00;;;14.70;99.90;;;;;;5045456;28;20286;-84
2023/06/25 04:38:50;;;;;;;10.40;10.10;;;14.80;99.90;;;;;;5045150;28;20224;-85
2023/06/25 04:41:22;;;;;;;10.20;9.90;;;14.90;99.90;;;;;;5044828;28;20322;-84
2023/06/25 04:43:50;;;;;;;10.20;9.90;;;15.00;99.90;;;;;;5045248;28;20239;-84
2023/06/25 04:46:19;;;;;;;10.43;10.13;;;15.10;99.90;;;;;;5045020;28;20251;-84
2023/06/25 04:48:48;;;;;;;10.52;10.23;;;15.30;99.90;;;;;;5044458;28;20226;-85
2023/06/25 04:51:18;;;;;;;10.60;10.30;;;15.30;99.90;;;;;;5044820;28;20236;-85
2023/06/25 04:53:47;;;;;;;10.50;10.20;;;15.40;99.90;;;;;;5044039;28;20224;-86
2023/06/25 04:56:16;;;;;;;10.35;10.05;;;15.50;99.90;;;;;;5048825;28;20215;-84
2023/06/25 04:59:13;;;;;;;10.38;10.07;;;15.60;99.90;;;;;;5053705;28;20237;-84
2023/06/25 05:01:54;;;;;;;10.27;9.98;;;15.70;99.90;;;;;;5048363;28;20326;-85
2023/06/25 05:04:40;;;;;;;10.30;10.00;;;15.90;99.90;;;;;;5048401;28;20231;-85
2023/06/25 05:07:49;;;;;;;10.60;10.30;;;16.00;99.90;;;;;;5047271;28;20247;-86
2023/06/25 05:10:31;;;;;;;10.50;10.20;;;16.20;99.90;;;;;;5045912;28;20236;-85
2023/06/25 05:13:07;;;;;;;10.50;10.20;;;16.30;99.90;;;;;;5045504;28;20319;-85
2023/06/25 05:16:16;;;;;;;10.45;10.15;;;16.50;99.90;;;;;;5044634;28;20266;-86
2023/06/25 05:19:02;;;;;;;10.65;10.35;;;16.60;99.90;;;;;;5043269;28;20235;-87
2023/06/25 05:22:02;;;;;;;10.65;10.35;;;16.80;99.90;;;;;;5042850;28;20294;-87
2023/06/25 05:24:42;;;;;;;10.60;10.30;;;16.90;99.90;;;;;;5042896;28;20298;-87
2023/06/25 05:27:11;;;;;;;10.48;10.18;;;17.10;99.90;;;;;;5043552;28;20251;-85
2023/06/25 05:43:27;;;;;;;10.85;10.55;;;17.60;99.90;;;;;;5033728;28;20263;-90
2023/06/25 05:57:06;;;;;;;10.60;10.30;;;18.20;99.90;;;;;;5031488;28;20772;-90
2023/06/25 05:59:47;;;;;;;10.50;10.20;;;18.50;99.90;;;;;;5029025;28;20223;-91
2023/06/25 09:25:30;;;;;;;9.52;9.23;;;28.60;99.90;;;;;;5043147;28;20222;-79
2023/06/25 09:27:59;;;;;;;9.73;9.43;;;28.60;99.90;;;;;;5043439;28;20242;-80
2023/06/25 09:30:28;;;;;;;9.63;9.32;;;28.90;99.90;;;;;;5044081;28;20298;-79
2023/06/25 09:32:56;;;;;;;9.73;9.43;;;29.00;99.90;;;;;;5049857;28;20231;-80
2023/06/25 09:35:28;;;;;;;9.77;9.48;;;28.90;99.90;;;;;;5050935;28;20223;-79
2023/06/25 09:37:56;;;;;;;10.00;9.70;;;28.40;99.90;;;;;;5051702;28;20240;-80
2023/06/25 09:40:25;;;;;;;9.75;9.45;;;28.40;99.90;;;;;;5049325;28;20235;-80
2023/06/25 09:42:56;;;;;;;9.80;9.50;;;28.50;99.90;;;;;;5050202;28;20259;-80
2023/06/25 09:45:26;;;;;;;9.70;9.40;;;28.70;99.90;;;;;;5049362;28;20227;-81
2023/06/25 09:47:55;;;;;;;9.70;9.40;;;28.80;99.90;;;;;;5044956;28;20251;-82
2023/06/25 09:50:28;;;;;;;9.52;9.23;;;29.00;99.90;;;;;;5046769;28;20255;-81
2023/06/25 09:52:58;;;;;;;9.75;9.45;;;29.00;99.90;;;;;;5045041;28;20334;-80
2023/06/25 09:55:29;;;;;;;9.60;9.30;;;29.10;99.90;;;;;;5044597;28;20298;-80
2023/06/25 09:58:00;;;;;;;9.77;9.48;;;29.20;99.90;;;;;;5045237;28;20231;-80
2023/06/25 10:00:30;;;;;;;9.90;9.60;;;29.30;99.90;;;;;;5045880;28;20243;-82
2023/06/25 10:02:58;;;;;;;9.68;9.38;;;29.50;99.90;;;;;;5044968;28;20266;-80
2023/06/25 10:05:26;;;;;;;9.80;9.50;;;29.70;99.90;;;;;;5043235;28;20235;-79
2023/06/25 10:07:58;;;;;;;9.82;9.52;;;29.90;99.90;;;;;;5043387;28;20291;-79
2023/06/25 10:10:29;;;;;;;9.82;9.52;;;30.30;99.90;;;;;;5048273;28;20231;-79
2023/06/25 10:12:59;;;;;;;9.73;9.43;;;30.00;99.90;;;;;;5053946;28;20281;-81
2023/06/25 10:15:33;;;;;;;9.70;9.40;;;29.60;99.90;;;;;;5054298;28;20262;-81
2023/06/25 10:18:04;;;;;;;10.07;9.77;;;29.80;99.90;;;;;;5055954;28;20293;-81
2023/06/25 10:20:34;;;;;;;9.80;9.50;;;29.80;99.90;;;;;;5057214;28;20222;-79
2023/06/25 10:23:23;;;;;;;9.82;9.52;;;29.80;99.90;;;;;;5052878;28;20231;-80
2023/06/25 10:26:01;;;;;;;9.57;9.27;;;30.00;99.90;;;;;;5053238;28;20320;-81
2023/06/25 10:28:36;;;;;;;9.60;9.30;;;30.30;99.90;;;;;;5053578;28;20259;-82
2023/06/25 10:31:14;;;;;;;9.70;9.40;;;30.60;99.90;;;;;;5053322;28;20246;-81
2023/06/25 10:33:42;;;;;;;9.70;9.40;;;30.60;99.90;;;;;;5053017;28;20236;-80
2023/06/25 10:36:10;;;;;;;9.70;9.40;;;30.40;99.90;;;;;;5054641;28;20224;-81
2023/06/25 10:38:41;;;;;;;9.75;9.45;;;30.60;99.90;;;;;;5053012;28;20235;-81
2023/06/25 10:41:09;;;;;;;9.73;9.43;;;30.80;99.90;;;;;;5050790;28;20243;-80
2023/06/25 10:43:39;;;;;;;9.90;9.60;;;30.80;99.90;;;;;;5050304;28;20242;-79
2023/06/25 10:46:07;;;;;;;9.90;9.60;;;31.00;99.90;;;;;;5050861;28;20250;-80
2023/06/25 10:48:35;;;;;;;9.98;9.68;;;31.10;99.90;;;;;;5050879;28;20235;-79
2023/06/25 10:51:03;;;;;;;9.98;9.68;;;30.80;99.90;;;;;;5052704;28;20227;-80
2023/06/25 10:53:34;;;;;;;9.85;9.55;;;30.80;99.90;;;;;;5053208;28;20242;-79
2023/06/25 10:56:03;;;;;;;9.73;9.43;;;30.30;99.90;;;;;;5052631;28;20247;-80
2023/06/25 10:58:34;;;;;;;9.75;9.45;;;30.20;99.90;;;;;;5054257;28;20231;-80
2023/06/25 11:01:04;;;;;;;9.77;9.48;;;30.10;99.90;;;;;;5055929;28;20239;-79
2023/06/25 11:03:38;;;;;;;9.70;9.40;;;30.20;99.90;;;;;;5057221;28;20266;-80
2023/06/25 11:06:09;;;;;;;9.63;9.32;;;30.40;99.90;;;;;;5057956;28;20237;-80
2023/06/25 11:08:37;;;;;;;9.80;9.50;;;30.90;99.90;;;;;;5058841;28;20219;-80
2023/06/25 11:11:07;;;;;;;9.85;9.55;;;31.20;99.90;;;;;;5058508;28;20238;-81
2023/06/25 11:13:38;;;;;;;10.10;9.80;;;31.40;99.90;;;;;;5058534;28;20223;-80
2023/06/25 11:16:09;;;;;;;9.90;9.60;;;31.60;99.90;;;;;;5058763;28;20215;-80
2023/06/25 11:18:37;;;;;;;9.90;9.60;;;31.50;99.90;;;;;;5059588;28;20223;-79
2023/06/25 11:21:06;;;;;;;9.45;9.15;;;31.30;99.90;;;;;;5058105;28;20217;-79
2023/06/25 11:23:34;;;;;;;9.68;9.38;;;31.00;99.90;;;;;;5057756;28;20322;-80
2023/06/25 11:26:03;;;;;;;9.55;9.25;;;31.00;99.90;;;;;;5056475;28;20235;-80
2023/06/25 11:28:31;;;;;;;9.55;9.25;;;31.20;99.90;;;;;;5057424;28;20224;-77
2023/06/25 11:31:00;;;;;;;9.20;8.90;;;31.30;99.90;;;;;;5057480;28;20266;-78
2023/06/25 11:33:29;;;;;;;9.85;9.55;;;31.40;99.90;;;;;;5057252;28;20207;-78
2023/06/25 11:36:09;;;;;;;10.00;9.70;;;31.20;99.90;;;;;;5057295;28;20262;-78
2023/06/25 11:38:36;;;;;;;9.80;9.50;;;31.30;99.90;;;;;;5052424;28;20231;-79
2023/06/25 11:41:07;;;;;;;9.73;9.43;;;31.30;99.90;;;;;;5047375;28;20243;-78
2023/06/25 11:43:35;;;;;;;9.73;9.43;;;31.50;99.90;;;;;;5046951;28;20241;-79
2023/06/25 11:46:03;;;;;;;9.57;9.27;;;31.80;99.90;;;;;;5045958;28;20235;-79
2023/06/25 11:48:33;;;;;;;9.75;9.45;;;32.20;99.90;;;;;;5043722;28;20247;-79
2023/06/25 11:51:07;;;;;;;10.00;9.70;;;32.20;99.90;;;;;;5042856;28;20232;-79
2023/06/25 11:53:35;;;;;;;10.00;9.70;;;32.20;99.90;;;;;;5043403;28;20322;-78
2023/06/25 11:56:03;;;;;;;9.90;9.60;;;32.50;99.90;;;;;;5043724;28;20231;-79
2023/06/25 11:58:31;;;;;;;9.77;9.48;;;32.60;99.90;;;;;;5042891;28;20238;-79
2023/06/25 12:00:58;;;;;;;10.38;10.07;;;32.90;99.90;;;;;;5042314;28;20241;-79
2023/06/25 12:03:26;;;;;;;10.45;10.15;;;33.10;99.90;;;;;;5042743;28;20254;-79
2023/06/25 12:05:55;;;;;;;10.20;9.90;;;33.20;99.90;;;;;;5042738;28;20235;-79
2023/06/25 12:08:23;;;;;;;10.10;9.80;;;33.30;99.90;;;;;;5042315;28;20230;-79
2023/06/25 12:10:51;;;;;;;10.00;9.70;;;33.20;99.90;;;;;;5042769;28;20281;-80
2023/06/25 12:13:18;;;;;;;9.70;9.40;;;32.90;99.90;;;;;;5042098;28;20270;-78
2023/06/25 12:15:46;;;;;;;9.50;9.20;;;33.10;99.90;;;;;;5046395;28;20234;-79
2023/06/25 12:18:14;;;;;;;9.50;9.20;;;33.20;99.90;;;;;;5040530;28;20239;-79
2023/06/25 12:20:41;;;;;;;9.90;9.60;;;33.00;99.90;;;;;;5041424;28;20235;-79
2023/06/25 12:23:13;;;;;;;9.85;9.55;;;32.90;99.90;;;;;;5040724;28;20239;-79
2023/06/25 12:25:41;;;;;;;9.90;9.60;;;33.20;99.90;;;;;;5041769;28;20275;-79
2023/06/25 12:28:08;;;;;;;10.07;9.77;;;33.50;99.90;;;;;;5042461;28;20238;-80
2023/06/25 12:30:36;;;;;;;9.93;9.63;;;33.90;99.90;;;;;;5043074;28;20263;-80
2023/06/25 12:33:03;;;;;;;9.95;9.65;;;33.90;99.90;;;;;;5041935;28;20266;-80
2023/06/25 12:35:31;;;;;;;9.80;9.50;;;34.10;99.90;;;;;;5042659;28;20267;-80
2023/06/25 12:37:58;;;;;;;9.70;9.40;;;34.30;99.90;;;;;;5043098;28;20250;-80
2023/06/25 12:40:28;;;;;;;9.82;9.52;;;34.30;99.90;;;;;;5043799;28;20299;-80
2023/06/25 12:42:56;;;;;;;9.70;9.40;;;33.50;99.90;;;;;;5042133;28;20262;-79
2023/06/25 12:45:24;;;;;;;9.63;9.32;;;33.30;99.90;;;;;;5042260;28;20219;-80
2023/06/25 12:47:52;;;;;;;9.80;9.50;;;33.20;99.90;;;;;;5042566;28;20232;-80
2023/06/25 12:50:20;;;;;;;9.90;9.60;;;33.50;99.90;;;;;;5042469;28;20235;-81
2023/06/25 12:52:47;;;;;;;9.23;8.93;;;33.70;99.90;;;;;;5043281;28;20243;-79
2023/06/25 12:55:18;;;;;;;9.10;8.90;;;33.90;99.90;;;;;;5045975;28;20284;-79
2023/06/25 12:57:47;;;;;;;9.48;9.18;;;33.70;99.90;;;;;;5046528;28;20228;-79
2023/06/25 13:00:16;;;;;;;9.35;9.05;;;33.80;99.90;;;;;;5045732;28;20239;-79
2023/06/25 13:02:44;;;;;;;9.50;9.20;;;33.70;99.90;;;;;;5045442;28;20232;-79
2023/06/25 13:05:14;;;;;;;9.43;9.13;;;33.40;99.90;;;;;;5045781;28;20222;-78
2023/06/25 13:07:42;;;;;;;9.60;9.30;;;33.30;99.90;;;;;;5045630;28;20232;-79
2023/06/25 13:10:09;;;;;;;9.88;9.57;;;33.60;99.90;;;;;;5055721;28;20227;-77
2023/06/25 13:12:37;;;;;;;10.20;9.90;;;34.10;99.90;;;;;;5060394;28;20294;-77
2023/06/25 13:15:07;;;;;;;10.20;9.90;;;34.50;99.90;;;;;;5055881;28;20231;-79
2023/06/25 13:17:36;;;;;;;10.00;9.70;;;34.90;99.90;;;;;;5045054;28;20278;-79
2023/06/25 13:20:04;;;;;;;10.05;9.75;;;35.10;99.90;;;;;;5045380;28;20251;-79
2023/06/25 13:22:32;;;;;;;9.50;9.20;;;35.20;99.90;;;;;;5043587;28;20298;-79
2023/06/25 13:24:59;;;;;;;9.35;9.05;;;35.30;99.90;;;;;;5046481;28;20307;-79
2023/06/25 13:27:27;;;;;;;9.38;9.07;;;35.40;99.90;;;;;;5046622;28;21093;-79
2023/06/25 13:29:54;;;;;;;9.32;9.02;;;35.30;99.90;;;;;;5044928;28;20299;-79
2023/06/25 13:32:23;;;;;;;9.18;8.90;;;35.50;99.90;;;;;;5044033;28;20250;-79
2023/06/25 13:34:51;;;;;;;9.40;9.10;;;35.70;99.90;;;;;;5043637;28;20293;-79
2023/06/25 13:37:18;;;;;;;9.15;8.90;;;35.90;99.90;;;;;;5044983;28;20239;-79
2023/06/25 13:39:46;;;;;;;9.10;8.90;;;36.20;99.90;;;;;;5046366;28;20232;-79
2023/06/25 13:42:13;;;;;;;9.68;9.38;;;36.40;99.90;;;;;;5045655;28;20330;-80
2023/06/25 13:44:41;;;;;;;10.02;9.73;;;36.50;99.90;;;;;;5044949;28;20224;-79
2023/06/25 13:47:12;;;;;;;10.05;9.75;;;36.60;99.90;;;;;;5044480;28;20303;-80
2023/06/25 13:49:41;;;;;;;10.02;9.73;;;36.70;99.90;;;;;;5044330;28;20289;-81
2023/06/25 13:52:09;;;;;;;10.02;9.73;;;36.90;99.90;;;;;;5043682;28;20231;-80
2023/06/25 13:54:37;;;;;;;9.98;9.68;;;36.80;99.40;;;;;;5044111;28;20262;-80
2023/06/25 13:57:05;;;;;;;10.02;9.73;;;36.10;99.90;;;;;;5043792;28;20235;-82
2023/06/25 13:59:32;;;;;;;10.00;9.70;;;35.70;99.90;;;;;;5043289;28;20303;-80
2023/06/25 14:02:00;;;;;;;10.00;9.70;;;35.60;99.00;;;;;;5043004;28;20239;-79
2023/06/25 14:04:27;;;;;;;10.00;9.70;;;35.60;99.90;;;;;;5043398;28;20234;-80
2023/06/25 14:06:59;;;;;;;10.00;9.70;;;35.50;99.50;;;;;;5043373;28;20235;-80
2023/06/25 14:09:27;;;;;;;10.02;9.73;;;35.50;97.60;;;;;;5045146;28;20232;-80
2023/06/25 14:11:55;;;;;;;10.10;9.80;;;35.20;99.90;;;;;;5048248;28;20239;-79
2023/06/25 14:14:22;;;;;;;10.18;9.88;;;35.40;99.90;;;;;;5047530;28;20255;-80
2023/06/25 14:16:50;;;;;;;10.10;9.80;;;35.50;99.90;;;;;;5047428;28;20235;-79
2023/06/25 14:19:17;;;;;;;9.90;9.60;;;35.80;99.90;;;;;;5047908;28;20334;-80
2023/06/25 14:21:46;;;;;;;9.77;9.48;;;36.10;99.90;;;;;;5044584;28;20262;-80
2023/06/25 14:24:15;;;;;;;9.80;9.50;;;36.30;99.90;;;;;;5042943;28;20267;-80
2023/06/25 14:26:42;;;;;;;9.80;9.50;;;36.40;99.90;;;;;;5043869;28;20302;-80
2023/06/25 14:29:10;;;;;;;9.73;9.43;;;36.70;97.80;;;;;;5043650;28;20266;-80
2023/06/25 14:31:37;;;;;;;9.82;9.52;;;36.30;98.00;;;;;;5043791;28;20330;-81
2023/06/25 14:34:05;;;;;;;9.73;9.43;;;36.40;99.90;;;;;;5043861;28;20220;-81
2023/06/25 14:36:34;;;;;;;9.85;9.55;;;36.20;98.30;;;;;;5043625;28;20277;-81
2023/06/25 14:39:02;;;;;;;10.10;9.80;;;36.40;98.40;;;;;;5043720;28;20239;-81
2023/06/25 14:41:31;;;;;;;9.90;9.60;;;36.40;98.00;;;;;;5042809;28;20255;-80
2023/06/25 14:43:58;;;;;;;9.70;9.40;;;36.50;96.20;;;;;;5043673;28;20211;-82
2023/06/25 14:46:26;;;;;;;9.75;9.45;;;36.60;98.00;;;;;;5043782;28;20240;-79
2023/06/25 14:48:54;;;;;;;9.80;9.50;;;36.70;99.10;;;;;;5042352;28;20279;-80
2023/06/25 14:51:22;;;;;;;9.60;9.30;;;36.80;97.60;;;;;;5042378;28;20243;-80
2023/06/25 14:53:49;;;;;;;10.00;9.70;;;36.90;96.30;;;;;;5042335;28;20273;-79
2023/06/25 14:56:20;;;;;;;9.73;9.43;;;36.80;97.00;;;;;;5042305;28;20281;-80
2023/06/25 14:58:50;;;;;;;9.73;9.43;;;36.80;96.70;;;;;;5043938;28;20231;-80
2023/06/25 15:01:17;;;;;;;9.93;9.63;;;36.70;97.40;;;;;;5042032;28;20241;-80
2023/06/25 15:03:45;;;;;;;9.93;9.63;;;36.70;96.10;;;;;;5041763;28;20215;-80
2023/06/25 15:06:12;;;;;;;10.07;9.77;;;36.80;98.20;;;;;;5042735;28;20318;-79
2023/06/25 15:08:40;;;;;;;9.77;9.48;;;36.40;96.90;;;;;;5048954;28;20303;-80
2023/06/25 15:11:07;;;;;;;9.80;9.50;;;36.20;96.70;;;;;;5042925;28;20243;-79
2023/06/25 15:13:35;;;;;;;9.70;9.40;;;36.10;96.90;;;;;;5047317;28;20254;-80
2023/06/25 15:16:05;;;;;;;9.52;9.23;;;35.90;97.00;;;;;;5046750;28;20327;-79
2023/06/25 15:18:32;;;;;;;9.70;9.40;;;35.90;99.80;;;;;;5042822;28;20227;-79
2023/06/25 15:21:00;;;;;;;9.57;9.27;;;36.10;98.60;;;;;;5042446;28;20287;-80
2023/06/25 21:25:51;;;;;;;10.40;10.10;;;23.50;99.90;;;;;;5045307;28;20227;-80
2023/06/25 21:28:21;;;;;;;10.20;9.90;;;23.40;99.90;;;;;;5046658;28;20279;-80
2023/06/25 21:30:51;;;;;;;10.40;10.10;;;23.30;99.90;;;;;;5046499;28;20231;-82
2023/06/25 21:33:22;;;;;;;10.50;10.20;;;23.20;99.90;;;;;;5045748;28;20298;-80
2023/06/25 21:35:50;;;;;;;10.52;10.23;;;23.10;99.90;;;;;;5045698;28;20224;-80
2023/06/25 21:38:18;;;;;;;10.18;9.88;;;23.00;99.90;;;;;;5045525;28;20335;-81
2023/06/25 21:40:48;;;;;;;10.30;10.00;;;23.00;99.90;;;;;;5045275;28;20231;-79
2023/06/25 21:43:15;;;;;;;10.50;10.20;;;22.90;99.90;;;;;;5044970;28;20257;-80
2023/06/25 21:45:44;;;;;;;10.40;10.10;;;22.80;99.90;;;;;;5047143;28;20223;-81
2023/06/25 21:48:12;;;;;;;10.18;9.88;;;22.70;99.90;;;;;;5047196;28;20275;-79
2023/06/25 21:50:39;;;;;;;10.43;10.13;;;22.70;99.90;;;;;;5046103;28;20326;-79
2023/06/25 21:53:10;;;;;;;10.38;10.07;;;22.60;99.90;;;;;;5045515;28;20242;-79
2023/06/25 21:55:39;;;;;;;10.40;10.10;;;22.40;99.90;;;;;;5048009;28;20246;-79
2023/06/25 21:58:08;;;;;;;10.20;9.90;;;22.40;99.90;;;;;;5043687;28;20231;-80
2023/06/25 22:00:36;;;;;;;10.38;10.07;;;22.30;99.90;;;;;;5044699;28;20235;-80
2023/06/25 22:03:04;;;;;;;10.38;10.07;;;22.20;99.90;;;;;;5044092;28;20261;-80
2023/06/25 22:05:36;;;;;;;10.40;10.10;;;22.10;99.90;;;;;;5050914;28;20275;-80
2023/06/25 22:08:03;;;;;;;10.57;10.27;;;21.90;99.90;;;;;;5054302;28;20235;-79
2023/06/25 22:10:31;;;;;;;10.40;10.10;;;21.80;99.90;;;;;;5046741;28;20294;-79
2023/06/25 22:13:01;;;;;;;10.60;10.30;;;21.70;99.90;;;;;;5045166;28;20322;-80
2023/06/25 22:15:31;;;;;;;10.50;10.20;;;21.60;99.90;;;;;;5044425;28;20296;-80
2023/06/25 22:18:06;;;;;;;10.52;10.23;;;21.60;99.90;;;;;;5044214;28;20234;-79
2023/06/25 22:20:35;;;;;;;10.40;10.10;;;21.50;99.90;;;;;;5047965;28;20251;-79
2023/06/25 22:23:03;;;;;;;10.30;10.00;;;21.40;99.90;;;;;;5048128;28;20270;-79
2023/06/25 22:25:32;;;;;;;10.45;10.15;;;21.40;99.90;;;;;;5043605;28;20754;-79
2023/06/25 22:28:00;;;;;;;10.50;10.20;;;21.40;99.90;;;;;;5043437;28;20274;-79
2023/06/25 22:30:29;;;;;;;10.73;10.43;;;21.30;99.90;;;;;;5044551;28;20329;-79
2023/06/25 22:32:57;;;;;;;10.50;10.20;;;21.20;99.90;;;;;;5043533;28;20231;-80
2023/06/25 22:35:24;;;;;;;10.70;10.40;;;21.20;99.90;;;;;;5044132;28;20237;-80
2023/06/25 22:37:52;;;;;;;10.63;10.32;;;21.10;99.90;;;;;;5044223;28;20258;-80
2023/06/25 22:40:20;;;;;;;10.55;10.25;;;21.10;99.90;;;;;;5043943;28;20238;-79
2023/06/25 22:42:47;;;;;;;10.70;10.40;;;21.10;99.90;;;;;;5043922;28;20271;-79
2023/06/25 22:45:16;;;;;;;10.70;10.40;;;21.10;99.90;;;;;;5045547;28;20275;-81